createdAt,value
2023-03-21T00:01:51.120Z,9.10
2023-03-21T00:04:18.332Z,9.10
2023-03-21T00:06:46.914Z,9.10
2023-03-21T00:09:13.950Z,9.10
2023-03-21T00:11:41.157Z,9.10
2023-03-21T00:14:08.595Z,9.10
2023-03-21T00:16:36.434Z,9.20
2023-03-21T00:19:05.192Z,9.10
2023-03-21T00:21:48.811Z,9.20
2023-03-21T00:24:21.793Z,9.20
2023-03-21T00:26:49.549Z,9.10
2023-03-21T00:29:16.587Z,9.10
2023-03-21T00:31:46.744Z,9.10
2023-03-21T00:34:13.968Z,9.10
2023-03-21T00:36:41.132Z,9.20
2023-03-21T00:39:08.437Z,9.20
2023-03-21T00:41:43.011Z,9.20
2023-03-21T00:44:11.772Z,9.20
2023-03-21T00:46:47.223Z,9.20
2023-03-21T00:49:16.410Z,9.20
2023-03-21T00:51:44.076Z,9.10
2023-03-21T00:54:13.332Z,9.20
2023-03-21T00:56:42.869Z,9.20
2023-03-21T00:59:10.181Z,9.20
2023-03-21T01:01:37.359Z,9.20
2023-03-21T01:04:07.352Z,9.20
2023-03-21T01:06:38.299Z,9.20
2023-03-21T01:09:07.478Z,9.20
2023-03-21T01:11:36.230Z,9.20
2023-03-21T01:14:21.039Z,9.20
2023-03-21T01:16:50.379Z,9.20
2023-03-21T01:19:40.632Z,9.20
2023-03-21T01:22:07.571Z,9.20
2023-03-21T01:24:37.698Z,9.20
2023-03-21T01:27:04.906Z,9.20
2023-03-21T01:29:33.327Z,9.20
2023-03-21T01:32:00.635Z,9.20
2023-03-21T01:34:27.788Z,9.20
2023-03-21T01:36:54.897Z,9.20
2023-03-21T01:39:22.195Z,9.20
2023-03-21T01:41:50.762Z,9.20
2023-03-21T01:44:20.722Z,9.20
2023-03-21T01:47:07.300Z,9.20
2023-03-21T01:49:51.086Z,9.20
2023-03-21T01:52:35.972Z,9.20
2023-03-21T01:55:12.228Z,9.20
2023-03-21T01:58:04.293Z,9.10
2023-03-21T02:00:38.276Z,9.10
2023-03-21T02:03:33.288Z,9.20
2023-03-21T02:06:32.545Z,9.20
2023-03-21T02:09:14.749Z,9.20
2023-03-21T02:11:44.205Z,9.20
2023-03-21T02:14:20.108Z,9.20
2023-03-21T02:17:10.313Z,9.20
2023-03-21T02:20:27.340Z,9.20
2023-03-21T02:23:42.973Z,9.20
2023-03-21T02:27:01.486Z,9.20
2023-03-21T02:30:26.438Z,9.20
2023-03-21T02:33:41.572Z,9.30
2023-03-21T02:36:24.728Z,9.20
2023-03-21T02:39:01.363Z,9.20
2023-03-21T02:41:45.555Z,9.30
2023-03-21T02:44:23.033Z,9.30
2023-03-21T02:47:05.231Z,9.30
2023-03-21T02:49:43.353Z,9.30
2023-03-21T02:52:31.720Z,9.30
2023-03-21T02:55:09.812Z,9.30
2023-03-21T02:57:47.209Z,9.30
2023-03-21T03:00:20.564Z,9.30
2023-03-21T03:02:50.606Z,9.40
2023-03-21T03:05:24.545Z,9.40
2023-03-21T03:08:09.058Z,9.40
2023-03-21T03:10:57.624Z,9.40
2023-03-21T03:13:51.002Z,9.40
2023-03-21T03:16:33.575Z,9.40
2023-03-21T03:19:03.025Z,9.40
2023-03-21T03:21:40.083Z,9.40
2023-03-21T03:24:15.954Z,9.30
2023-03-21T03:26:58.735Z,9.40
2023-03-21T03:29:34.716Z,9.40
2023-03-21T03:32:11.744Z,9.40
2023-03-21T03:34:49.464Z,9.30
2023-03-21T03:37:23.496Z,9.40
2023-03-21T03:40:05.605Z,9.40
2023-03-21T03:42:46.797Z,9.40
2023-03-21T03:45:32.145Z,9.40
2023-03-21T03:48:08.035Z,9.40
2023-03-21T03:50:54.774Z,9.30
2023-03-21T03:53:40.245Z,9.40
2023-03-21T03:56:10.914Z,9.40
2023-03-21T03:58:45.569Z,9.40
2023-03-21T04:01:17.518Z,9.40
2023-03-21T04:03:51.687Z,9.40
2023-03-21T04:06:23.983Z,9.40
2023-03-21T04:08:57.119Z,9.40
2023-03-21T04:11:25.475Z,9.40
2023-03-21T04:13:55.332Z,9.30
2023-03-21T04:16:24.210Z,9.30
2023-03-21T04:18:51.674Z,9.30
2023-03-21T04:21:20.795Z,9.40
2023-03-21T04:23:47.743Z,9.40
2023-03-21T04:26:14.801Z,9.40
2023-03-21T04:28:51.742Z,9.30
2023-03-21T04:31:26.473Z,9.40
2023-03-21T04:34:06.591Z,9.40
2023-03-21T04:36:34.663Z,9.40
2023-03-21T04:39:02.844Z,9.40
2023-03-21T04:41:41.037Z,9.40
2023-03-21T04:44:19.109Z,9.40
2023-03-21T04:46:50.144Z,9.40
2023-03-21T04:49:20.076Z,9.40
2023-03-21T04:51:47.470Z,9.50
2023-03-21T04:54:28.851Z,9.40
2023-03-21T04:56:56.888Z,9.50
2023-03-21T04:59:28.982Z,9.40
2023-03-21T05:01:57.392Z,9.40
2023-03-21T05:04:25.757Z,9.40
2023-03-21T05:06:55.130Z,9.40
2023-03-21T05:09:22.994Z,9.40
2023-03-21T05:11:50.217Z,9.50
2023-03-21T05:14:22.371Z,9.50
2023-03-21T05:17:01.546Z,9.50
2023-03-21T05:19:31.251Z,9.40
2023-03-21T05:21:59.023Z,9.40
2023-03-21T05:24:27.814Z,9.50
2023-03-21T05:26:54.815Z,9.50
2023-03-21T05:29:24.716Z,9.50
2023-03-21T05:32:05.623Z,9.50
2023-03-21T05:34:32.558Z,9.50
2023-03-21T05:37:00.782Z,9.50
2023-03-21T05:39:40.379Z,9.50
2023-03-21T05:45:15.438Z,9.60
2023-03-21T05:47:44.101Z,9.60
2023-03-21T05:50:13.841Z,9.60
2023-03-21T05:52:44.685Z,9.70
2023-03-21T05:55:14.282Z,9.70
2023-03-21T05:57:42.308Z,9.70
2023-03-21T06:00:16.813Z,9.70
2023-03-21T06:02:45.750Z,9.80
2023-03-21T06:05:32.972Z,9.80
2023-03-21T06:08:00.180Z,9.90
2023-03-21T06:10:27.238Z,9.90
2023-03-21T06:12:54.292Z,9.90
2023-03-21T06:15:33.540Z,9.90
2023-03-21T06:18:11.099Z,9.90
2023-03-21T06:20:43.893Z,9.90
2023-03-21T06:23:12.411Z,9.90
2023-03-21T06:25:40.650Z,9.90
2023-03-21T06:28:08.028Z,10.00
2023-03-21T06:30:39.620Z,9.90
2023-03-21T06:33:15.233Z,10.00
2023-03-21T06:35:43.373Z,10.10
2023-03-21T06:38:10.281Z,10.10
2023-03-21T06:40:38.689Z,10.10
2023-03-21T06:43:06.023Z,10.20
2023-03-21T06:45:33.276Z,10.30
2023-03-21T06:48:00.620Z,10.40
2023-03-21T06:50:35.648Z,10.50
2023-03-21T06:53:02.810Z,10.50
2023-03-21T06:55:33.853Z,10.50
2023-03-21T06:58:02.039Z,10.50
2023-03-21T07:00:29.017Z,10.60
2023-03-21T07:02:56.237Z,10.60
2023-03-21T07:05:25.177Z,10.60
2023-03-21T07:07:53.520Z,10.50
2023-03-21T07:10:21.656Z,10.50
2023-03-21T07:12:58.344Z,10.50
2023-03-21T07:16:01.059Z,10.50
2023-03-21T07:18:28.434Z,10.50
2023-03-21T07:20:56.844Z,10.60
2023-03-21T07:23:26.473Z,10.70
2023-03-21T07:25:54.987Z,10.70
2023-03-21T07:28:23.277Z,10.60
2023-03-21T07:30:57.801Z,10.70
2023-03-21T07:33:26.375Z,10.70
2023-03-21T07:35:59.717Z,10.80
2023-03-21T07:38:28.259Z,10.80
2023-03-21T07:40:55.256Z,10.80
2023-03-21T07:43:22.919Z,10.90
2023-03-21T07:45:57.038Z,10.90
2023-03-21T07:48:24.220Z,10.90
2023-03-21T07:50:51.114Z,10.90
2023-03-21T07:53:18.133Z,10.90
2023-03-21T07:55:50.407Z,11.00
2023-03-21T07:58:17.434Z,11.00
2023-03-21T08:00:44.380Z,11.00
2023-03-21T08:03:11.229Z,11.00
2023-03-21T08:05:39.067Z,11.00
2023-03-21T08:08:07.152Z,11.00
2023-03-21T08:10:34.686Z,11.10
2023-03-21T08:13:03.473Z,11.10
2023-03-21T08:15:30.558Z,11.20
2023-03-21T08:17:59.259Z,11.10
2023-03-21T08:20:26.915Z,11.10
2023-03-21T08:22:54.704Z,11.10
2023-03-21T08:25:23.087Z,11.20
2023-03-21T08:27:51.568Z,11.20
2023-03-21T08:30:28.000Z,11.20
2023-03-21T08:33:00.509Z,11.20
2023-03-21T08:35:29.263Z,11.20
2023-03-21T08:37:56.341Z,11.10
2023-03-21T08:40:23.391Z,11.10
2023-03-21T08:42:50.284Z,11.20
2023-03-21T08:45:19.231Z,11.20
2023-03-21T08:47:46.915Z,11.20
2023-03-21T08:50:18.767Z,11.30
2023-03-21T08:52:45.897Z,11.30
2023-03-21T08:55:15.489Z,11.30
2023-03-21T08:57:42.703Z,11.40
2023-03-21T09:00:14.673Z,11.40
2023-03-21T09:02:45.121Z,11.30
2023-03-21T09:05:12.775Z,11.40
2023-03-21T09:07:41.070Z,11.40
2023-03-21T09:10:21.105Z,11.50
2023-03-21T09:12:51.353Z,11.60
2023-03-21T09:15:18.791Z,11.70
2023-03-21T09:17:47.571Z,11.80
2023-03-21T09:20:14.682Z,11.80
2023-03-21T09:22:42.855Z,11.90
2023-03-21T09:25:10.026Z,12.00
2023-03-21T09:27:37.396Z,12.10
2023-03-21T09:30:06.343Z,12.10
2023-03-21T09:32:33.315Z,12.20
2023-03-21T09:35:02.016Z,12.20
2023-03-21T09:37:29.032Z,12.20
2023-03-21T09:39:55.840Z,12.20
2023-03-21T09:42:37.996Z,12.20
2023-03-21T09:45:12.046Z,12.20
2023-03-21T09:47:45.429Z,12.10
2023-03-21T09:50:18.029Z,12.10
2023-03-21T09:52:50.789Z,12.20
2023-03-21T09:55:23.432Z,12.20
2023-03-21T09:58:01.823Z,12.10
2023-03-21T10:00:36.297Z,12.00
2023-03-21T10:03:06.172Z,12.00
2023-03-21T10:05:40.208Z,12.00
2023-03-21T10:08:18.467Z,11.90
2023-03-21T10:10:49.291Z,11.90
2023-03-21T10:13:22.225Z,11.80
2023-03-21T10:15:49.168Z,11.90
2023-03-21T10:18:24.048Z,12.10
2023-03-21T10:20:52.888Z,12.30
2023-03-21T10:23:25.749Z,12.40
2023-03-21T10:25:56.558Z,12.40
2023-03-21T10:28:28.507Z,12.60
2023-03-21T10:30:58.731Z,12.70
2023-03-21T10:33:33.743Z,12.80
2023-03-21T10:36:08.849Z,12.80
2023-03-21T10:38:39.953Z,12.90
2023-03-21T10:41:07.423Z,12.90
2023-03-21T10:43:37.760Z,13.10
2023-03-21T10:46:12.610Z,13.20
2023-03-21T10:48:42.340Z,13.20
2023-03-21T10:51:17.246Z,13.40
2023-03-21T10:53:51.802Z,13.30
2023-03-21T10:56:22.894Z,13.20
2023-03-21T10:58:51.076Z,13.10
2023-03-21T11:01:29.944Z,13.10
2023-03-21T11:03:59.973Z,13.30
2023-03-21T11:06:32.478Z,13.40
2023-03-21T11:09:07.380Z,13.40
2023-03-21T11:11:37.727Z,13.40
2023-03-21T11:14:07.770Z,13.30
2023-03-21T11:16:41.048Z,13.40
2023-03-21T11:19:20.012Z,13.40
2023-03-21T11:21:48.329Z,13.40
2023-03-21T11:24:18.265Z,13.60
2023-03-21T11:26:49.036Z,13.60
2023-03-21T11:29:36.125Z,13.40
2023-03-21T11:32:12.173Z,13.50
2023-03-21T11:34:47.545Z,13.50
2023-03-21T11:37:28.723Z,13.60
2023-03-21T11:40:15.341Z,13.60
2023-03-21T11:42:45.746Z,13.60
2023-03-21T11:45:37.807Z,13.70
2023-03-21T11:48:14.085Z,13.70
2023-03-21T11:50:46.417Z,13.60
2023-03-21T11:53:32.909Z,13.60
2023-03-21T11:56:19.705Z,13.50
2023-03-21T11:59:04.792Z,13.30
2023-03-21T12:01:40.168Z,13.30
2023-03-21T12:04:29.213Z,13.20
2023-03-21T12:07:06.201Z,13.10
2023-03-21T12:09:41.959Z,13.10
2023-03-21T12:12:39.178Z,13.30
2023-03-21T12:15:21.272Z,13.40
2023-03-21T12:18:06.553Z,13.60
2023-03-21T12:20:43.525Z,13.80
2023-03-21T12:23:45.798Z,13.80
2023-03-21T12:26:23.746Z,13.70
2023-03-21T12:29:24.805Z,13.60
2023-03-21T12:32:10.487Z,13.60
2023-03-21T12:35:27.805Z,13.40
2023-03-21T12:38:12.104Z,13.30
2023-03-21T12:41:05.833Z,13.30
2023-03-21T12:43:44.805Z,13.30
2023-03-21T12:46:20.691Z,13.20
2023-03-21T12:48:53.716Z,13.10
2023-03-21T12:51:28.774Z,13.10
2023-03-21T12:54:06.492Z,13.10
2023-03-21T12:56:43.302Z,13.40
2023-03-21T12:59:27.366Z,13.60
2023-03-21T13:02:00.743Z,13.60
2023-03-21T13:04:41.962Z,13.60
2023-03-21T13:07:15.781Z,13.60
2023-03-21T13:09:44.152Z,13.50
2023-03-21T13:12:33.621Z,13.40
2023-03-21T13:15:24.356Z,13.30
2023-03-21T13:18:04.460Z,13.20
2023-03-21T13:20:41.932Z,13.10
2023-03-21T13:23:09.106Z,13.10
2023-03-21T13:25:44.657Z,13.10
2023-03-21T13:28:20.944Z,13.00
2023-03-21T13:30:50.409Z,13.00
2023-03-21T13:33:23.186Z,12.90
2023-03-21T13:36:00.956Z,12.90
2023-03-21T13:38:29.764Z,12.90
2023-03-21T13:41:00.293Z,12.80
2023-03-21T13:43:39.267Z,12.70
2023-03-21T13:46:10.727Z,12.80
2023-03-21T13:49:00.163Z,13.00
2023-03-21T13:51:46.684Z,13.10
2023-03-21T13:54:26.079Z,13.10
2023-03-21T13:57:01.017Z,13.20
2023-03-21T13:59:42.414Z,13.10
2023-03-21T14:02:29.739Z,13.00
2023-03-21T14:05:06.832Z,13.00
2023-03-21T14:07:41.035Z,12.90
2023-03-21T14:10:19.476Z,12.90
2023-03-21T14:12:48.474Z,12.80
2023-03-21T14:15:22.013Z,12.80
2023-03-21T14:17:57.594Z,12.80
2023-03-21T14:20:28.149Z,12.80
2023-03-21T14:22:55.701Z,12.80
2023-03-21T14:25:37.267Z,12.80
2023-03-21T14:28:18.301Z,13.00
2023-03-21T14:30:51.026Z,13.10
2023-03-21T14:33:26.906Z,13.10
2023-03-21T14:35:59.611Z,13.10
2023-03-21T14:38:33.409Z,13.10
2023-03-21T14:41:00.422Z,13.00
2023-03-21T14:43:28.739Z,13.00
2023-03-21T14:45:57.356Z,12.90
2023-03-21T14:48:32.842Z,12.80
2023-03-21T14:51:04.837Z,12.70
2023-03-21T14:53:37.862Z,12.60
2023-03-21T14:56:16.829Z,12.60
2023-03-21T14:58:47.089Z,12.60
2023-03-21T15:01:17.760Z,12.60
2023-03-21T15:03:46.984Z,12.60
2023-03-21T15:06:14.500Z,12.70
2023-03-21T15:08:55.613Z,12.80
2023-03-21T15:11:31.454Z,12.90
2023-03-21T15:14:02.154Z,12.80
2023-03-21T15:16:31.397Z,12.80
2023-03-21T15:19:01.572Z,12.80
2023-03-21T15:21:32.515Z,12.80
2023-03-21T15:24:05.684Z,12.80
2023-03-21T15:26:32.906Z,12.90
2023-03-21T15:29:00.510Z,12.90
2023-03-21T15:31:34.036Z,12.90
2023-03-21T15:34:05.101Z,12.90
2023-03-21T15:36:35.577Z,12.80
2023-03-21T15:39:08.498Z,12.90
2023-03-21T15:41:35.710Z,12.80
2023-03-21T15:44:13.882Z,12.80
2023-03-21T15:46:44.429Z,12.60
2023-03-21T15:49:20.843Z,12.50
2023-03-21T15:51:52.413Z,12.50
2023-03-21T15:54:24.733Z,12.50
2023-03-21T15:56:55.371Z,12.50
2023-03-21T15:59:27.742Z,12.50
2023-03-21T16:02:01.839Z,12.40
2023-03-21T16:04:31.153Z,12.40
2023-03-21T16:07:01.664Z,12.40
2023-03-21T16:09:42.143Z,12.30
2023-03-21T16:12:12.208Z,12.40
2023-03-21T16:14:39.817Z,12.30
2023-03-21T16:17:30.664Z,12.40
2023-03-21T16:19:59.125Z,12.30
2023-03-21T16:22:26.361Z,12.20
2023-03-21T16:24:53.225Z,12.20
2023-03-21T16:27:21.132Z,12.20
2023-03-21T16:29:48.039Z,12.20
2023-03-21T16:32:17.445Z,12.20
2023-03-21T16:34:44.547Z,12.20
2023-03-21T16:37:13.964Z,12.20
2023-03-21T16:39:41.020Z,12.10
2023-03-21T16:45:01.483Z,12.00
2023-03-21T16:47:28.396Z,12.00
2023-03-21T16:49:55.389Z,11.90
2023-03-21T16:52:26.270Z,11.90
2023-03-21T16:54:53.415Z,11.90
2023-03-21T16:57:26.074Z,11.80
2023-03-21T16:59:54.479Z,11.70
2023-03-21T17:02:24.813Z,11.70
2023-03-21T17:04:52.092Z,11.70
2023-03-21T17:07:19.287Z,11.70
2023-03-21T17:09:47.499Z,11.70
2023-03-21T17:12:16.205Z,11.70
2023-03-21T17:14:44.825Z,11.60
2023-03-21T17:17:14.130Z,11.60
2023-03-21T17:19:41.171Z,11.60
2023-03-21T17:22:09.276Z,11.50
2023-03-21T17:24:37.392Z,11.50
2023-03-21T17:27:10.842Z,11.50
2023-03-21T17:29:39.067Z,11.50
2023-03-21T17:32:06.214Z,11.40
2023-03-21T17:34:33.382Z,11.40
2023-03-21T17:37:00.680Z,11.40
2023-03-21T17:39:27.905Z,11.40
2023-03-21T17:41:55.789Z,11.30
2023-03-21T17:44:24.088Z,11.30
2023-03-21T17:46:52.462Z,11.30
2023-03-21T17:49:19.697Z,11.20
2023-03-21T17:51:46.710Z,11.20
2023-03-21T17:54:13.593Z,11.20
2023-03-21T17:56:40.926Z,11.10
2023-03-21T17:59:13.014Z,11.10
2023-03-21T18:01:41.704Z,11.10
2023-03-21T18:04:08.897Z,11.10
2023-03-21T18:06:36.114Z,11.10
2023-03-21T18:09:04.935Z,11.10
2023-03-21T18:11:31.845Z,11.00
2023-03-21T18:14:13.690Z,11.00
2023-03-21T18:16:43.690Z,11.00
2023-03-21T18:19:11.462Z,11.00
2023-03-21T18:21:38.450Z,11.00
2023-03-21T18:24:06.432Z,10.90
2023-03-21T18:26:33.370Z,10.90
2023-03-21T18:32:04.529Z,10.90
2023-03-21T18:34:33.395Z,10.80
2023-03-21T18:37:03.784Z,10.80
2023-03-21T18:39:32.021Z,10.80
2023-03-21T18:41:59.364Z,10.80
2023-03-21T18:44:26.315Z,10.80
2023-03-21T18:46:55.129Z,10.70
2023-03-21T18:52:10.181Z,10.70
2023-03-21T18:54:38.181Z,10.70
2023-03-21T18:57:34.565Z,10.70
2023-03-21T18:59:53.585Z,10.70
2023-03-21T19:02:22.144Z,10.70
2023-03-21T19:04:49.235Z,10.70
2023-03-21T19:07:16.099Z,10.70
2023-03-21T19:10:01.911Z,10.60
2023-03-21T19:12:30.753Z,10.60
2023-03-21T19:14:57.740Z,10.60
2023-03-21T19:20:13.394Z,10.50
2023-03-21T19:22:40.540Z,10.50
2023-03-21T19:25:09.473Z,10.50
2023-03-21T19:27:37.635Z,10.50
2023-03-21T19:30:14.406Z,10.50
2023-03-21T19:32:44.577Z,10.50
2023-03-21T19:35:12.051Z,10.50
2023-03-21T19:37:38.963Z,10.50
2023-03-21T19:40:08.059Z,10.50
2023-03-21T19:42:35.166Z,10.50
2023-03-21T19:45:02.698Z,10.50
2023-03-21T19:47:29.664Z,10.40
2023-03-21T19:52:45.193Z,10.40
2023-03-21T19:55:12.435Z,10.40
2023-03-21T19:57:39.639Z,10.40
2023-03-21T20:00:08.867Z,10.40
2023-03-21T20:02:37.115Z,10.50
2023-03-21T20:05:08.253Z,10.50
2023-03-21T20:07:35.459Z,10.50
2023-03-21T20:10:02.427Z,10.50
2023-03-21T20:12:29.451Z,10.50
2023-03-21T20:15:12.205Z,10.50
2023-03-21T20:17:43.910Z,10.50
2023-03-21T20:20:13.162Z,10.50
2023-03-21T20:25:27.252Z,10.60
2023-03-21T20:28:12.885Z,10.60
2023-03-21T20:30:46.131Z,10.60
2023-03-21T20:33:13.110Z,10.60
2023-03-21T20:38:29.893Z,10.60
2023-03-21T20:40:57.087Z,10.60
2023-03-21T20:44:13.985Z,10.60
2023-03-21T20:46:12.926Z,10.60
2023-03-21T20:48:42.315Z,10.70
2023-03-21T20:52:14.754Z,10.70
2023-03-21T20:53:59.065Z,10.70
2023-03-21T20:56:25.937Z,10.70
2023-03-21T20:59:04.842Z,10.70
2023-03-21T21:01:39.460Z,10.80
2023-03-21T21:04:06.882Z,10.80
2023-03-21T21:06:35.383Z,10.80
2023-03-21T21:09:02.208Z,10.80
2023-03-21T21:14:16.442Z,10.80
2023-03-21T21:16:43.515Z,10.80
2023-03-21T21:19:11.448Z,10.80
2023-03-21T21:21:40.976Z,10.90
2023-03-21T21:24:09.047Z,10.90
2023-03-21T21:26:36.136Z,10.90
2023-03-21T21:29:03.312Z,10.90
2023-03-21T21:31:30.245Z,10.90
2023-03-21T21:33:57.148Z,10.90
2023-03-21T21:36:24.092Z,10.90
2023-03-21T21:38:52.284Z,10.90
2023-03-21T21:41:22.100Z,10.90
2023-03-21T21:43:48.949Z,10.90
2023-03-21T21:46:16.509Z,11.00
2023-03-21T21:48:44.028Z,11.00
2023-03-21T21:51:11.338Z,11.00
2023-03-21T21:53:42.151Z,11.00
2023-03-21T21:56:10.974Z,11.00
2023-03-21T21:58:38.164Z,10.90
2023-03-21T22:01:06.491Z,11.00
2023-03-21T22:03:33.639Z,11.00
2023-03-21T22:06:02.910Z,11.00
2023-03-21T22:08:29.813Z,11.00
2023-03-21T22:10:56.866Z,11.00
2023-03-21T22:13:25.222Z,11.10
2023-03-21T22:16:17.185Z,11.00
2023-03-21T22:18:46.366Z,11.00
2023-03-21T22:21:13.614Z,11.00
2023-03-21T22:23:41.697Z,11.00
2023-03-21T22:26:09.778Z,11.00
2023-03-21T22:28:39.171Z,11.00
2023-03-21T22:31:14.037Z,11.10
2023-03-21T22:33:41.625Z,11.10
2023-03-21T22:36:10.128Z,11.10
2023-03-21T22:38:37.228Z,11.10
2023-03-21T22:41:06.310Z,11.10
2023-03-21T22:43:34.240Z,11.10
2023-03-21T22:46:04.605Z,11.10
2023-03-21T22:48:32.964Z,11.10
2023-03-21T22:51:00.585Z,11.10
2023-03-21T22:53:28.224Z,11.20
2023-03-21T22:55:56.578Z,11.20
2023-03-21T22:58:24.050Z,11.20
2023-03-21T23:00:51.112Z,11.20
2023-03-21T23:03:19.558Z,11.20
2023-03-21T23:05:46.506Z,11.20
2023-03-21T23:08:13.957Z,11.10
2023-03-21T23:10:42.053Z,11.10
2023-03-21T23:13:09.325Z,11.10
2023-03-21T23:15:36.308Z,11.10
2023-03-21T23:18:05.056Z,11.10
2023-03-21T23:20:33.591Z,11.00
2023-03-21T23:23:00.575Z,11.00
2023-03-21T23:25:27.596Z,10.90
2023-03-21T23:27:55.234Z,10.90
2023-03-21T23:30:22.289Z,10.90
2023-03-21T23:32:49.336Z,10.80
2023-03-21T23:35:16.959Z,10.80
2023-03-21T23:37:47.762Z,10.70
2023-03-21T23:40:14.690Z,10.70
2023-03-21T23:42:41.588Z,10.70
2023-03-21T23:45:09.620Z,10.60
2023-03-21T23:47:36.836Z,10.60
2023-03-21T23:50:04.704Z,10.60
2023-03-21T23:52:31.829Z,10.50
2023-03-21T23:55:00.652Z,10.50
2023-03-21T23:57:27.473Z,10.50
2023-03-21T23:59:55.041Z,10.50
